Time;durP1;ratioP1;P1;durP2;ratioP2;P2;SDS_P1;SDS_P2;PMS_P1;PMS_P2;Temp;Humidity;BMP_temperature;BMP_pressure;BME280_temperature;BME280_humidity;BME280_pressure;Samples;Min_cycle;Max_cycle;Signal;HPM_P1;HPM_P2
2023/06/12 00:02:23;;;;;;;8.95;4.25;;;;;;;;;;5050959;28;20207;-58
2023/06/12 00:04:49;;;;;;;5.30;3.97;;;;;;;;;;5051377;28;20211;-58
2023/06/12 00:07:16;;;;;;;6.32;4.22;;;;;;;;;;5050829;28;20210;-58
2023/06/12 00:09:41;;;;;;;8.40;3.88;;;;;;;;;;5037507;28;20215;-58
2023/06/12 00:12:07;;;;;;;7.80;4.10;;;;;;;;;;5034630;28;20274;-58
2023/06/12 00:14:32;;;;;;;7.15;4.00;;;;;;;;;;5034174;28;20247;-58
2023/06/12 00:16:57;;;;;;;5.68;3.92;;;;;;;;;;5034924;28;20214;-58
2023/06/12 00:19:23;;;;;;;7.78;3.80;;;;;;;;;;5034366;28;20227;-58
2023/06/12 00:21:48;;;;;;;6.65;3.92;;;;;;;;;;5034022;28;20212;-58
2023/06/12 00:24:13;;;;;;;13.25;4.75;;;;;;;;;;5034432;28;20212;-58
2023/06/12 00:26:39;;;;;;;6.18;4.00;;;;;;;;;;5034838;28;20208;-58
2023/06/12 00:29:04;;;;;;;8.80;4.28;;;;;;;;;;5033721;28;20208;-57
2023/06/12 00:31:29;;;;;;;8.68;4.25;;;;;;;;;;5034529;28;20207;-58
2023/06/12 00:33:55;;;;;;;5.88;4.15;;;;;;;;;;5034713;28;20211;-58
2023/06/12 00:36:20;;;;;;;8.90;3.95;;;;;;;;;;5031846;28;20618;-58
2023/06/12 00:38:45;;;;;;;7.63;4.00;;;;;;;;;;5034618;28;20266;-58
2023/06/12 00:41:11;;;;;;;7.93;4.00;;;;;;;;;;5034142;28;20690;-57
2023/06/12 00:43:36;;;;;;;6.13;3.92;;;;;;;;;;5033783;28;20212;-58
2023/06/12 00:46:02;;;;;;;7.13;3.85;;;;;;;;;;5033799;28;20208;-57
2023/06/12 00:48:27;;;;;;;6.72;4.20;;;;;;;;;;5032693;28;20243;-58
2023/06/12 00:50:56;;;;;;;12.90;4.47;;;;;;;;;;5032604;28;20663;-58
2023/06/12 00:53:21;;;;;;;9.63;4.63;;;;;;;;;;5033658;28;20219;-57
2023/06/12 00:55:46;;;;;;;6.75;4.20;;;;;;;;;;5038937;28;20206;-58
2023/06/12 00:58:11;;;;;;;8.65;3.88;;;;;;;;;;5053325;28;20326;-58
2023/06/12 01:00:38;;;;;;;7.25;4.20;;;;;;;;;;5054116;28;20600;-58
2023/06/12 01:03:04;;;;;;;6.88;3.80;;;;;;;;;;5053063;28;20662;-57
2023/06/12 01:05:36;;;;;;;7.95;4.05;;;;;;;;;;5053837;28;20677;-58
2023/06/12 01:08:15;;;;;;;5.53;4.22;;;;;;;;;;5049573;28;20658;-58
2023/06/12 01:10:41;;;;;;;7.53;4.00;;;;;;;;;;5032078;28;20234;-58
2023/06/12 01:13:09;;;;;;;10.40;4.03;;;;;;;;;;5032240;28;20667;-58
2023/06/12 01:15:35;;;;;;;8.38;4.43;;;;;;;;;;5034027;28;20215;-58
2023/06/12 01:18:00;;;;;;;6.05;4.05;;;;;;;;;;5032820;28;20580;-58
2023/06/12 01:20:26;;;;;;;7.00;4.15;;;;;;;;;;5032396;28;20208;-58
2023/06/12 01:22:53;;;;;;;7.50;3.90;;;;;;;;;;5032339;28;20212;-58
2023/06/12 01:25:37;;;;;;;5.45;3.72;;;;;;;;;;5031297;28;20222;-58
2023/06/12 01:28:03;;;;;;;7.55;4.10;;;;;;;;;;5033247;28;20294;-58
2023/06/12 01:30:35;;;;;;;5.47;3.83;;;;;;;;;;5033472;28;20222;-58
2023/06/12 01:33:03;;;;;;;72.82;8.38;;;;;;;;;;5031468;28;20219;-58
2023/06/12 01:35:30;;;;;;;7.13;3.83;;;;;;;;;;5032466;28;20218;-58
2023/06/12 01:38:03;;;;;;;6.93;4.10;;;;;;;;;;5032662;28;20231;-58
2023/06/12 01:40:29;;;;;;;6.43;3.92;;;;;;;;;;5032974;28;20265;-58
2023/06/12 01:42:54;;;;;;;7.03;4.45;;;;;;;;;;5033192;28;20211;-58
2023/06/12 01:45:19;;;;;;;5.80;4.03;;;;;;;;;;5032422;28;20222;-58
2023/06/12 01:47:45;;;;;;;8.88;4.28;;;;;;;;;;5032954;28;20208;-58
2023/06/12 01:50:12;;;;;;;6.55;4.10;;;;;;;;;;5032834;28;20215;-58
2023/06/12 01:52:38;;;;;;;7.68;4.10;;;;;;;;;;5032407;28;20726;-58
2023/06/12 01:55:04;;;;;;;7.65;3.95;;;;;;;;;;5032674;28;20295;-58
2023/06/12 01:57:30;;;;;;;7.10;4.40;;;;;;;;;;5052217;28;20230;-58
2023/06/12 01:59:55;;;;;;;10.40;4.53;;;;;;;;;;5051207;28;20215;-58
2023/06/12 02:02:20;;;;;;;7.22;4.40;;;;;;;;;;5052317;28;20670;-58
2023/06/12 02:04:46;;;;;;;6.22;4.15;;;;;;;;;;5053015;28;20294;-58
2023/06/12 02:07:11;;;;;;;8.07;4.30;;;;;;;;;;5051642;28;20207;-58
2023/06/12 02:09:36;;;;;;;7.47;4.07;;;;;;;;;;5035942;28;20635;-58
2023/06/12 02:12:02;;;;;;;6.72;4.25;;;;;;;;;;5032391;28;20258;-58
2023/06/12 02:14:27;;;;;;;7.10;3.95;;;;;;;;;;5032078;28;20218;-58
2023/06/12 02:16:53;;;;;;;7.43;3.78;;;;;;;;;;5032602;28;20204;-58
2023/06/12 02:19:22;;;;;;;8.70;4.00;;;;;;;;;;5032175;28;20227;-58
2023/06/12 02:21:48;;;;;;;8.50;3.97;;;;;;;;;;5030346;28;20616;-58
2023/06/12 02:24:13;;;;;;;7.25;3.88;;;;;;;;;;5032136;28;20686;-57
2023/06/12 02:26:39;;;;;;;7.00;4.00;;;;;;;;;;5022756;28;20313;-58
2023/06/12 02:29:06;;;;;;;6.45;4.10;;;;;;;;;;5002166;28;20396;-58
2023/06/12 02:31:31;;;;;;;7.68;4.18;;;;;;;;;;5010914;28;20216;-58
2023/06/12 02:33:56;;;;;;;9.68;3.80;;;;;;;;;;5002441;28;20626;-58
2023/06/12 02:36:23;;;;;;;5.20;4.00;;;;;;;;;;5005820;28;20302;-58
2023/06/12 02:38:48;;;;;;;6.28;4.32;;;;;;;;;;5002932;28;20260;-58
2023/06/12 02:41:13;;;;;;;6.10;4.00;;;;;;;;;;4998662;28;20729;-58
2023/06/12 02:43:39;;;;;;;8.35;4.47;;;;;;;;;;5006439;28;20497;-58
2023/06/12 02:46:04;;;;;;;7.15;4.10;;;;;;;;;;4994260;28;20213;-58
2023/06/12 02:48:30;;;;;;;9.20;4.47;;;;;;;;;;4997467;28;20266;-58
2023/06/12 02:50:55;;;;;;;9.45;4.63;;;;;;;;;;5002563;28;20205;-58
2023/06/12 02:53:20;;;;;;;14.15;4.78;;;;;;;;;;5002786;28;20303;-58
2023/06/12 02:55:46;;;;;;;40.65;6.40;;;;;;;;;;5002345;28;20200;-57
2023/06/12 02:58:12;;;;;;;13.10;4.40;;;;;;;;;;5002096;28;20240;-58
2023/06/12 03:00:37;;;;;;;12.05;4.93;;;;;;;;;;5002483;28;20208;-58
2023/06/12 03:03:02;;;;;;;6.47;4.50;;;;;;;;;;5000871;28;20227;-58
2023/06/12 03:05:28;;;;;;;9.45;4.72;;;;;;;;;;4994989;28;20419;-58
2023/06/12 03:07:53;;;;;;;8.82;4.72;;;;;;;;;;5011858;28;20959;-58
2023/06/12 03:10:18;;;;;;;9.82;4.93;;;;;;;;;;4993923;28;20613;-57
2023/06/12 03:12:44;;;;;;;6.90;4.65;;;;;;;;;;5003453;28;20792;-58
2023/06/12 03:15:10;;;;;;;8.13;4.88;;;;;;;;;;5002621;28;20351;-58
2023/06/12 03:17:35;;;;;;;7.82;5.18;;;;;;;;;;5001722;28;20208;-58
2023/06/12 03:20:03;;;;;;;8.13;4.72;;;;;;;;;;5002255;28;20223;-57
2023/06/12 03:22:28;;;;;;;20.45;5.88;;;;;;;;;;5022265;28;20227;-57
2023/06/12 03:24:54;;;;;;;8.40;4.80;;;;;;;;;;5021060;28;20220;-57
2023/06/12 03:27:20;;;;;;;9.02;4.82;;;;;;;;;;5015911;28;20212;-57
2023/06/12 03:29:45;;;;;;;9.80;4.70;;;;;;;;;;5024373;28;20208;-58
2023/06/12 03:32:11;;;;;;;6.93;4.50;;;;;;;;;;5010729;28;20223;-57
2023/06/12 03:34:36;;;;;;;10.32;4.78;;;;;;;;;;5010567;28;20221;-58
2023/06/12 03:37:01;;;;;;;8.65;4.70;;;;;;;;;;5011949;28;20581;-57
2023/06/12 03:39:27;;;;;;;9.45;5.25;;;;;;;;;;5011115;28;20586;-57
2023/06/12 03:41:53;;;;;;;7.30;4.70;;;;;;;;;;5012099;28;20717;-58
2023/06/12 03:44:18;;;;;;;13.50;4.78;;;;;;;;;;5014545;28;20232;-57
2023/06/12 03:46:43;;;;;;;7.97;5.05;;;;;;;;;;5015660;28;20298;-58
2023/06/12 03:49:09;;;;;;;6.03;4.35;;;;;;;;;;5015378;28;20287;-57
2023/06/12 03:51:35;;;;;;;7.78;4.95;;;;;;;;;;5015382;28;20558;-58
2023/06/12 03:54:01;;;;;;;11.10;5.18;;;;;;;;;;5025074;28;20274;-57
2023/06/12 03:56:26;;;;;;;7.93;4.35;;;;;;;;;;5021229;28;20782;-57
2023/06/12 03:58:52;;;;;;;11.88;4.65;;;;;;;;;;4997617;28;20226;-58
2023/06/12 04:01:17;;;;;;;7.35;4.32;;;;;;;;;;5001174;28;20586;-57
2023/06/12 04:03:44;;;;;;;8.63;4.60;;;;;;;;;;5005947;28;20663;-58
2023/06/12 04:06:10;;;;;;;7.32;4.47;;;;;;;;;;5004701;28;20213;-57
2023/06/12 04:08:37;;;;;;;7.55;5.10;;;;;;;;;;5006077;28;20220;-57
2023/06/12 04:11:03;;;;;;;8.38;4.28;;;;;;;;;;5024507;28;20291;-58
2023/06/12 04:13:28;;;;;;;14.48;4.75;;;;;;;;;;5024269;28;20307;-58
2023/06/12 04:15:55;;;;;;;7.82;4.85;;;;;;;;;;5008955;28;20263;-57
2023/06/12 04:18:21;;;;;;;16.83;5.15;;;;;;;;;;5016830;28;20246;-58
2023/06/12 04:20:46;;;;;;;8.52;4.50;;;;;;;;;;5016142;28;20216;-58
2023/06/12 04:23:11;;;;;;;66.00;8.32;;;;;;;;;;5000705;28;20223;-57
2023/06/12 04:25:37;;;;;;;8.18;4.60;;;;;;;;;;5005336;28;20223;-58
2023/06/12 04:28:03;;;;;;;8.88;4.40;;;;;;;;;;5004417;28;20247;-58
2023/06/12 04:30:31;;;;;;;16.05;5.00;;;;;;;;;;5005362;28;20213;-57
2023/06/12 04:32:56;;;;;;;19.63;5.70;;;;;;;;;;5024363;28;20231;-57
2023/06/12 04:35:22;;;;;;;9.07;4.57;;;;;;;;;;5012590;28;20477;-57
2023/06/12 04:37:48;;;;;;;14.38;4.97;;;;;;;;;;5005974;28;20239;-57
2023/06/12 04:40:14;;;;;;;29.85;5.53;;;;;;;;;;4998216;28;20216;-58
2023/06/12 04:42:41;;;;;;;5.85;4.45;;;;;;;;;;5001001;28;20782;-57
2023/06/12 04:45:08;;;;;;;8.50;4.75;;;;;;;;;;5015346;28;20220;-56
2023/06/12 04:47:36;;;;;;;9.80;4.85;;;;;;;;;;5022679;28;20211;-58
2023/06/12 04:50:01;;;;;;;7.03;4.50;;;;;;;;;;5023967;28;20211;-57
2023/06/12 04:52:27;;;;;;;5.50;4.47;;;;;;;;;;5024137;28;20204;-57
2023/06/12 04:54:53;;;;;;;10.13;5.00;;;;;;;;;;5007026;28;20266;-57
2023/06/12 04:57:18;;;;;;;12.52;4.60;;;;;;;;;;5005807;28;20232;-58
2023/06/12 04:59:45;;;;;;;11.43;4.90;;;;;;;;;;5004433;28;20317;-58
2023/06/12 05:02:10;;;;;;;100.72;9.77;;;;;;;;;;5019283;28;20244;-58
2023/06/12 05:04:37;;;;;;;12.88;4.68;;;;;;;;;;5008101;28;20511;-57
2023/06/12 05:07:04;;;;;;;7.45;4.68;;;;;;;;;;4996034;28;20205;-57
2023/06/12 05:09:30;;;;;;;10.40;5.05;;;;;;;;;;5004230;28;20217;-57
2023/06/12 05:11:55;;;;;;;107.55;11.75;;;;;;;;;;5004487;28;20220;-57
2023/06/12 05:14:20;;;;;;;21.67;5.20;;;;;;;;;;5004487;28;20216;-58
2023/06/12 05:16:47;;;;;;;19.98;5.60;;;;;;;;;;5004059;28;20675;-57
2023/06/12 05:19:13;;;;;;;8.05;4.85;;;;;;;;;;5004099;28;20257;-57
2023/06/12 05:21:41;;;;;;;7.47;4.70;;;;;;;;;;5004497;28;20761;-58
2023/06/12 05:24:06;;;;;;;10.20;4.93;;;;;;;;;;5025232;28;20682;-57
2023/06/12 05:26:32;;;;;;;7.88;4.82;;;;;;;;;;5022308;28;20209;-58
2023/06/12 05:28:57;;;;;;;8.95;4.60;;;;;;;;;;5021931;28;20216;-58
2023/06/12 05:31:22;;;;;;;8.10;5.00;;;;;;;;;;5027843;28;20212;-58
2023/06/12 05:33:48;;;;;;;11.98;5.30;;;;;;;;;;5023471;28;20208;-57
2023/06/12 05:36:13;;;;;;;9.55;5.07;;;;;;;;;;5021720;28;20204;-58
2023/06/12 05:38:38;;;;;;;10.73;4.95;;;;;;;;;;5023370;28;20220;-57
2023/06/12 05:41:04;;;;;;;8.68;4.95;;;;;;;;;;5022226;28;20211;-57
2023/06/12 05:43:29;;;;;;;6.82;4.57;;;;;;;;;;5022644;28;20204;-58
2023/06/12 05:45:54;;;;;;;8.88;4.90;;;;;;;;;;5028908;28;20203;-58
2023/06/12 05:48:20;;;;;;;10.65;5.22;;;;;;;;;;5026520;28;20224;-58
2023/06/12 05:50:45;;;;;;;8.15;4.85;;;;;;;;;;5021784;28;20224;-58
2023/06/12 05:53:11;;;;;;;8.93;4.82;;;;;;;;;;5023341;28;20208;-58
2023/06/12 05:55:36;;;;;;;10.05;5.43;;;;;;;;;;5021882;28;20563;-57
2023/06/12 05:58:02;;;;;;;12.45;5.40;;;;;;;;;;5051775;28;20230;-58
2023/06/12 06:00:27;;;;;;;9.48;5.05;;;;;;;;;;5052837;28;20215;-58
2023/06/12 06:02:53;;;;;;;8.63;5.15;;;;;;;;;;5053132;28;20219;-58
2023/06/12 06:05:18;;;;;;;9.35;5.57;;;;;;;;;;5050856;28;20586;-58
2023/06/12 06:07:44;;;;;;;11.07;5.80;;;;;;;;;;5051751;28;20207;-57
2023/06/12 06:10:10;;;;;;;10.32;5.70;;;;;;;;;;5032327;28;20216;-57
2023/06/12 06:12:36;;;;;;;8.65;5.57;;;;;;;;;;5027247;28;20265;-58
2023/06/12 06:15:01;;;;;;;8.35;5.43;;;;;;;;;;5032204;28;20211;-57
2023/06/12 06:17:27;;;;;;;8.65;5.35;;;;;;;;;;5032732;28;20245;-57
2023/06/12 06:19:52;;;;;;;9.40;5.90;;;;;;;;;;5031922;28;20230;-58
2023/06/12 06:22:18;;;;;;;8.10;5.28;;;;;;;;;;5032256;28;20299;-58
2023/06/12 06:24:44;;;;;;;7.60;5.60;;;;;;;;;;5032364;28;20296;-57
2023/06/12 06:27:09;;;;;;;9.52;5.60;;;;;;;;;;5033405;28;20735;-57
2023/06/12 06:29:35;;;;;;;7.38;5.63;;;;;;;;;;5020860;28;20216;-58
2023/06/12 06:32:00;;;;;;;11.07;5.80;;;;;;;;;;5033008;28;20203;-58
2023/06/12 06:34:26;;;;;;;15.05;6.32;;;;;;;;;;5031026;28;20658;-57
2023/06/12 06:36:51;;;;;;;8.93;5.65;;;;;;;;;;5025679;28;20555;-58
2023/06/12 06:39:17;;;;;;;10.75;5.68;;;;;;;;;;5031783;28;20223;-57
2023/06/12 06:41:42;;;;;;;11.88;5.78;;;;;;;;;;5031334;28;20357;-57
2023/06/12 06:44:07;;;;;;;12.18;6.20;;;;;;;;;;5031725;28;20296;-58
2023/06/12 06:46:33;;;;;;;18.65;7.32;;;;;;;;;;5032312;28;20216;-58
2023/06/12 06:48:58;;;;;;;10.88;5.75;;;;;;;;;;5031823;28;20294;-58
2023/06/12 06:51:23;;;;;;;10.93;6.40;;;;;;;;;;5031700;28;20229;-58
2023/06/12 06:53:49;;;;;;;10.65;6.20;;;;;;;;;;5032163;28;20223;-57
2023/06/12 06:56:14;;;;;;;8.82;6.13;;;;;;;;;;5046151;28;20278;-58
2023/06/12 06:58:40;;;;;;;7.63;5.65;;;;;;;;;;5052293;28;20227;-58
2023/06/12 07:01:05;;;;;;;9.40;6.10;;;;;;;;;;5029282;28;20287;-58
2023/06/12 07:03:31;;;;;;;12.45;6.28;;;;;;;;;;5032078;28;20624;-58
2023/06/12 07:05:56;;;;;;;15.32;6.63;;;;;;;;;;5031896;28;20223;-58
2023/06/12 07:08:21;;;;;;;11.68;6.25;;;;;;;;;;5043293;28;20227;-58
2023/06/12 07:10:47;;;;;;;10.25;6.05;;;;;;;;;;5031711;28;20298;-59
2023/06/12 07:13:12;;;;;;;9.48;5.95;;;;;;;;;;5028818;28;20693;-58
2023/06/12 07:15:37;;;;;;;10.38;6.13;;;;;;;;;;5038570;28;20238;-58
2023/06/12 07:18:03;;;;;;;10.52;6.00;;;;;;;;;;5034976;28;20227;-58
2023/06/12 07:20:28;;;;;;;9.45;6.13;;;;;;;;;;5035780;28;20227;-58
2023/06/12 07:22:53;;;;;;;10.02;5.75;;;;;;;;;;5035266;28;20230;-59
2023/06/12 07:25:19;;;;;;;12.75;6.72;;;;;;;;;;5035037;28;20686;-58
2023/06/12 07:27:44;;;;;;;13.50;6.25;;;;;;;;;;5037668;28;20234;-58
2023/06/12 07:30:11;;;;;;;11.68;6.28;;;;;;;;;;5054343;28;20215;-59
2023/06/12 07:32:36;;;;;;;10.43;5.70;;;;;;;;;;5055872;28;20285;-59
2023/06/12 07:35:02;;;;;;;10.10;6.20;;;;;;;;;;5054570;28;20757;-58
2023/06/12 07:37:29;;;;;;;9.95;5.85;;;;;;;;;;5035003;28;20215;-59
2023/06/12 07:39:54;;;;;;;11.25;6.45;;;;;;;;;;5035359;28;20702;-59
2023/06/12 07:42:20;;;;;;;13.38;5.97;;;;;;;;;;5034955;28;20228;-58
2023/06/12 07:44:45;;;;;;;9.63;5.82;;;;;;;;;;5043348;28;20630;-58
2023/06/12 07:47:10;;;;;;;10.60;6.20;;;;;;;;;;5055006;28;20226;-58
2023/06/12 07:49:36;;;;;;;7.35;5.22;;;;;;;;;;5052627;28;20684;-58
2023/06/12 07:52:01;;;;;;;10.50;5.35;;;;;;;;;;5054536;28;20675;-59
2023/06/12 07:54:27;;;;;;;10.30;6.05;;;;;;;;;;5050111;28;20227;-59
2023/06/12 07:56:53;;;;;;;8.23;5.68;;;;;;;;;;5031811;28;20227;-59
2023/06/12 07:59:18;;;;;;;8.02;5.90;;;;;;;;;;5024877;28;20215;-59
2023/06/12 08:01:44;;;;;;;8.18;6.05;;;;;;;;;;5020414;28;20342;-59
2023/06/12 08:04:09;;;;;;;12.45;5.93;;;;;;;;;;5026998;28;20294;-58
2023/06/12 08:06:35;;;;;;;9.32;5.60;;;;;;;;;;5034355;28;20295;-59
2023/06/12 08:09:00;;;;;;;11.10;5.85;;;;;;;;;;5033187;28;20577;-59
2023/06/12 08:11:25;;;;;;;7.70;5.50;;;;;;;;;;5022945;28;20294;-59
2023/06/12 08:13:51;;;;;;;10.98;6.13;;;;;;;;;;5020519;28;20666;-58
2023/06/12 08:16:16;;;;;;;10.40;5.68;;;;;;;;;;5026276;28;20207;-58
2023/06/12 08:18:42;;;;;;;15.27;6.50;;;;;;;;;;5023459;28;20221;-58
2023/06/12 08:21:07;;;;;;;10.23;5.30;;;;;;;;;;5026284;28;20751;-59
2023/06/12 08:23:33;;;;;;;12.13;5.70;;;;;;;;;;5047148;28;20273;-59
2023/06/12 08:25:58;;;;;;;8.75;5.43;;;;;;;;;;5032936;28;20216;-59
2023/06/12 08:28:24;;;;;;;8.65;5.97;;;;;;;;;;5033931;28;20569;-59
2023/06/12 08:30:50;;;;;;;10.95;5.18;;;;;;;;;;5036709;28;20290;-60
2023/06/12 08:33:16;;;;;;;10.95;5.97;;;;;;;;;;5053236;28;20665;-59
2023/06/12 08:35:41;;;;;;;9.13;5.85;;;;;;;;;;5048632;28;20207;-59
2023/06/12 08:38:07;;;;;;;8.80;5.88;;;;;;;;;;5034313;28;20228;-59
2023/06/12 08:40:32;;;;;;;10.90;6.07;;;;;;;;;;5033716;28;20225;-60
2023/06/12 08:42:58;;;;;;;8.77;5.65;;;;;;;;;;5034721;28;20224;-59
2023/06/12 08:45:25;;;;;;;8.40;5.60;;;;;;;;;;5034059;28;20214;-59
2023/06/12 08:47:51;;;;;;;9.57;5.32;;;;;;;;;;5033471;28;20655;-59
2023/06/12 08:50:18;;;;;;;10.18;5.40;;;;;;;;;;5032848;28;20701;-59
2023/06/12 08:52:44;;;;;;;8.73;5.43;;;;;;;;;;5034451;28;20251;-61
2023/06/12 08:55:11;;;;;;;8.05;5.50;;;;;;;;;;5033081;28;20219;-59
2023/06/12 08:57:37;;;;;;;11.75;5.72;;;;;;;;;;5054033;28;20227;-59
2023/06/12 09:00:06;;;;;;;8.90;5.35;;;;;;;;;;5053727;28;20249;-59
2023/06/12 09:02:31;;;;;;;9.77;6.10;;;;;;;;;;5053280;28;20207;-59
2023/06/12 09:04:59;;;;;;;10.80;5.50;;;;;;;;;;5054113;28;20206;-60
2023/06/12 09:07:25;;;;;;;6.57;5.30;;;;;;;;;;5035621;28;20303;-60
2023/06/12 09:09:50;;;;;;;13.52;5.80;;;;;;;;;;5041793;28;20298;-60
2023/06/12 09:12:16;;;;;;;8.52;5.63;;;;;;;;;;5036153;28;20259;-61
2023/06/12 09:14:44;;;;;;;9.30;5.65;;;;;;;;;;5033187;28;20585;-60
2023/06/12 09:17:09;;;;;;;13.43;5.60;;;;;;;;;;5031945;28;20755;-60
2023/06/12 09:19:36;;;;;;;7.97;5.20;;;;;;;;;;5033748;28;20310;-60
2023/06/12 09:22:02;;;;;;;9.20;5.45;;;;;;;;;;5032733;28;20215;-60
2023/06/12 09:24:27;;;;;;;7.65;5.30;;;;;;;;;;5033420;28;20239;-60
2023/06/12 09:26:54;;;;;;;10.20;5.80;;;;;;;;;;5033803;28;20235;-60
2023/06/12 09:29:22;;;;;;;6.97;4.80;;;;;;;;;;5032440;28;20218;-60
2023/06/12 09:31:51;;;;;;;7.80;5.22;;;;;;;;;;5032498;28;20216;-60
2023/06/12 09:34:16;;;;;;;10.77;5.20;;;;;;;;;;5032985;28;20247;-60
2023/06/12 09:36:42;;;;;;;10.57;5.10;;;;;;;;;;5032840;28;20239;-60
2023/06/12 09:39:08;;;;;;;7.80;4.78;;;;;;;;;;5031789;28;20289;-60
2023/06/12 09:41:34;;;;;;;6.53;4.97;;;;;;;;;;5032637;28;20211;-60
2023/06/12 09:44:02;;;;;;;56.42;8.60;;;;;;;;;;5032376;28;20211;-60
2023/06/12 09:46:27;;;;;;;12.90;5.18;;;;;;;;;;5033219;28;20212;-60
2023/06/12 09:48:54;;;;;;;6.47;4.78;;;;;;;;;;5033166;28;20212;-60
2023/06/12 09:51:20;;;;;;;8.85;4.85;;;;;;;;;;5032270;28;20248;-60
2023/06/12 09:53:45;;;;;;;7.70;4.72;;;;;;;;;;5033309;28;20231;-60
2023/06/12 09:56:10;;;;;;;6.25;4.45;;;;;;;;;;5040875;28;20298;-60
2023/06/12 09:58:36;;;;;;;16.05;5.20;;;;;;;;;;5050801;28;20230;-60
2023/06/12 10:01:05;;;;;;;12.05;4.85;;;;;;;;;;5052605;28;20290;-60
2023/06/12 10:03:30;;;;;;;6.05;4.38;;;;;;;;;;5052860;28;20218;-60
2023/06/12 10:05:56;;;;;;;5.68;4.05;;;;;;;;;;5050994;28;20211;-60
2023/06/12 10:08:21;;;;;;;9.57;4.32;;;;;;;;;;5046434;28;20238;-60
2023/06/12 10:10:48;;;;;;;10.45;4.00;;;;;;;;;;5032762;28;20204;-60
2023/06/12 10:13:13;;;;;;;6.22;3.97;;;;;;;;;;5030371;28;20634;-60
2023/06/12 10:15:38;;;;;;;6.50;4.60;;;;;;;;;;5031537;28;20714;-60
2023/06/12 10:18:04;;;;;;;6.75;4.63;;;;;;;;;;5031575;28;20227;-60
2023/06/12 10:20:29;;;;;;;12.85;5.10;;;;;;;;;;5031344;28;20242;-60
2023/06/12 10:22:55;;;;;;;10.00;5.13;;;;;;;;;;5032978;28;20239;-60
2023/06/12 10:25:20;;;;;;;17.95;5.40;;;;;;;;;;5031152;28;20342;-60
2023/06/12 10:27:46;;;;;;;10.75;4.70;;;;;;;;;;5032619;28;20220;-60
2023/06/12 10:30:11;;;;;;;6.85;4.90;;;;;;;;;;5030847;28;20543;-60
2023/06/12 10:32:37;;;;;;;8.95;5.03;;;;;;;;;;5031924;28;20220;-60
2023/06/12 10:35:03;;;;;;;10.13;5.07;;;;;;;;;;5031937;28;20227;-60
2023/06/12 10:37:29;;;;;;;9.02;5.18;;;;;;;;;;5032719;28;20223;-60
2023/06/12 10:40:11;;;;;;;8.80;4.53;;;;;;;;;;5031495;28;20268;-60
2023/06/12 10:42:38;;;;;;;8.07;4.80;;;;;;;;;;5032158;28;20211;-60
2023/06/12 10:45:04;;;;;;;13.38;5.38;;;;;;;;;;5031813;28;20269;-59
2023/06/12 10:47:30;;;;;;;10.63;5.32;;;;;;;;;;5030268;28;20212;-60
2023/06/12 10:49:56;;;;;;;9.10;5.38;;;;;;;;;;5032023;28;20215;-60
2023/06/12 10:52:21;;;;;;;8.25;5.07;;;;;;;;;;5030865;28;20215;-60
2023/06/12 10:54:48;;;;;;;6.38;4.88;;;;;;;;;;5030827;28;20689;-60
2023/06/12 10:57:13;;;;;;;7.88;5.03;;;;;;;;;;5047906;28;20231;-60
2023/06/12 10:59:39;;;;;;;9.13;5.30;;;;;;;;;;5051554;28;20273;-60
2023/06/12 11:02:04;;;;;;;7.63;4.68;;;;;;;;;;5050451;28;20257;-60
2023/06/12 11:04:37;;;;;;;8.48;4.88;;;;;;;;;;5051617;28;20207;-60
2023/06/12 11:07:02;;;;;;;8.63;5.03;;;;;;;;;;5051053;28;20599;-60
2023/06/12 11:09:31;;;;;;;10.02;4.45;;;;;;;;;;5034826;28;20239;-60
2023/06/12 11:11:57;;;;;;;6.28;4.72;;;;;;;;;;5031815;28;20670;-61
2023/06/12 11:14:25;;;;;;;17.05;5.10;;;;;;;;;;5028767;28;20211;-60
2023/06/12 11:16:56;;;;;;;7.97;5.07;;;;;;;;;;5031725;28;20295;-60
2023/06/12 11:19:21;;;;;;;9.75;5.40;;;;;;;;;;5031079;28;20232;-60
2023/06/12 11:21:47;;;;;;;7.10;4.90;;;;;;;;;;5029344;28;20211;-60
2023/06/12 11:24:12;;;;;;;7.72;4.80;;;;;;;;;;5030902;28;20220;-60
2023/06/12 11:26:37;;;;;;;8.80;4.88;;;;;;;;;;5013704;28;20214;-60
2023/06/12 11:29:12;;;;;;;9.30;5.10;;;;;;;;;;5029097;28;20251;-60
2023/06/12 11:31:37;;;;;;;7.60;4.95;;;;;;;;;;5031656;28;20203;-60
2023/06/12 11:34:03;;;;;;;7.10;4.93;;;;;;;;;;5031114;28;20227;-60
2023/06/12 11:36:29;;;;;;;6.95;5.25;;;;;;;;;;5030643;28;20303;-60
2023/06/12 11:38:54;;;;;;;8.60;5.07;;;;;;;;;;5031088;28;20227;-60
2023/06/12 11:41:19;;;;;;;9.75;4.97;;;;;;;;;;5031094;28;20215;-60
2023/06/12 11:43:45;;;;;;;7.53;4.60;;;;;;;;;;5029474;28;20216;-60
2023/06/12 11:46:10;;;;;;;7.00;4.47;;;;;;;;;;5030779;28;20249;-60
2023/06/12 11:48:35;;;;;;;8.07;4.60;;;;;;;;;;5031485;28;20581;-60
2023/06/12 11:51:01;;;;;;;8.93;4.90;;;;;;;;;;5029830;28;20219;-60
2023/06/12 11:53:26;;;;;;;8.27;4.82;;;;;;;;;;5030616;28;20220;-60
2023/06/12 11:55:56;;;;;;;7.35;4.65;;;;;;;;;;5037181;28;20241;-60
2023/06/12 11:58:36;;;;;;;13.52;5.40;;;;;;;;;;5049798;28;20235;-60
2023/06/12 12:01:10;;;;;;;7.28;4.70;;;;;;;;;;5050642;28;20234;-60
2023/06/12 12:03:37;;;;;;;59.05;7.72;;;;;;;;;;5040667;28;20220;-60
2023/06/12 12:06:02;;;;;;;8.95;5.15;;;;;;;;;;5015332;28;20224;-59
2023/06/12 12:08:27;;;;;;;7.38;4.60;;;;;;;;;;5023545;28;20663;-59
2023/06/12 12:10:53;;;;;;;12.18;5.05;;;;;;;;;;5053255;28;20333;-60
2023/06/12 12:13:18;;;;;;;155.30;14.82;;;;;;;;;;5054230;28;20265;-59
2023/06/12 12:15:43;;;;;;;8.85;4.78;;;;;;;;;;5040861;28;20212;-59
2023/06/12 12:18:10;;;;;;;9.60;4.70;;;;;;;;;;5033210;28;20224;-60
2023/06/12 12:20:35;;;;;;;7.88;4.80;;;;;;;;;;5033378;28;20306;-59
2023/06/12 12:23:02;;;;;;;19.52;4.95;;;;;;;;;;5033819;28;20299;-61
2023/06/12 12:25:28;;;;;;;10.57;4.65;;;;;;;;;;5033653;28;20289;-60
2023/06/12 12:27:54;;;;;;;6.20;4.65;;;;;;;;;;5034455;28;20683;-60
2023/06/12 12:30:21;;;;;;;15.95;4.60;;;;;;;;;;5034062;28;20220;-60
2023/06/12 12:32:47;;;;;;;8.95;4.90;;;;;;;;;;5033461;28;20246;-60
2023/06/12 12:35:13;;;;;;;7.28;4.43;;;;;;;;;;5044114;28;20681;-60
2023/06/12 12:37:38;;;;;;;7.57;5.07;;;;;;;;;;5033998;28;20716;-59
2023/06/12 12:40:08;;;;;;;8.60;5.00;;;;;;;;;;5032563;28;20220;-60
2023/06/12 12:42:34;;;;;;;14.77;5.25;;;;;;;;;;5034145;28;20216;-60
2023/06/12 12:44:59;;;;;;;15.90;5.03;;;;;;;;;;5034060;28;20223;-60
2023/06/12 12:47:25;;;;;;;15.68;5.18;;;;;;;;;;5035347;28;21048;-60
2023/06/12 12:49:51;;;;;;;10.00;4.85;;;;;;;;;;5033997;28;20222;-60
2023/06/12 12:52:16;;;;;;;8.25;4.55;;;;;;;;;;5033336;28;20204;-60
2023/06/12 12:54:41;;;;;;;7.85;4.70;;;;;;;;;;5032817;28;20235;-60
2023/06/12 12:57:08;;;;;;;6.35;4.63;;;;;;;;;;5049398;28;20538;-60
2023/06/12 12:59:34;;;;;;;6.22;4.43;;;;;;;;;;5053481;28;20708;-60
2023/06/12 13:01:59;;;;;;;6.18;4.28;;;;;;;;;;5052665;28;20215;-60
2023/06/12 13:04:25;;;;;;;7.88;4.40;;;;;;;;;;5053216;28;20305;-59
2023/06/12 13:06:51;;;;;;;8.73;4.63;;;;;;;;;;5052874;28;20302;-60
2023/06/12 13:09:16;;;;;;;6.88;4.30;;;;;;;;;;5039047;28;20223;-60
2023/06/12 13:11:42;;;;;;;6.72;4.40;;;;;;;;;;5033743;28;20220;-60
2023/06/12 13:14:07;;;;;;;9.63;4.13;;;;;;;;;;5030759;28;20212;-60
2023/06/12 13:16:32;;;;;;;8.82;4.72;;;;;;;;;;5039381;28;20211;-60
2023/06/12 13:18:58;;;;;;;9.13;4.70;;;;;;;;;;5053393;28;20586;-60
2023/06/12 13:21:23;;;;;;;6.68;4.20;;;;;;;;;;5052190;28;20219;-60
2023/06/12 13:23:48;;;;;;;7.90;4.10;;;;;;;;;;5053004;28;20218;-60
2023/06/12 13:26:14;;;;;;;7.25;4.47;;;;;;;;;;5052842;28;20265;-60
2023/06/12 13:28:39;;;;;;;6.82;4.25;;;;;;;;;;5052559;28;20674;-60
2023/06/12 13:31:05;;;;;;;6.75;4.50;;;;;;;;;;5052641;28;20670;-60
2023/06/12 13:33:30;;;;;;;7.22;4.60;;;;;;;;;;5051501;28;20662;-60
2023/06/12 13:35:56;;;;;;;7.00;4.35;;;;;;;;;;5043972;28;20212;-60
2023/06/12 13:38:21;;;;;;;7.40;4.70;;;;;;;;;;5032286;28;20679;-60
2023/06/12 13:40:49;;;;;;;7.68;4.90;;;;;;;;;;5032963;28;20678;-60
2023/06/12 13:43:14;;;;;;;6.97;4.60;;;;;;;;;;5031955;28;20220;-60
2023/06/12 13:45:40;;;;;;;7.97;4.45;;;;;;;;;;5032851;28;20581;-60
2023/06/12 13:48:05;;;;;;;10.93;4.90;;;;;;;;;;5032296;28;20556;-60
2023/06/12 13:50:30;;;;;;;7.70;4.97;;;;;;;;;;5032235;28;20216;-60
2023/06/12 13:52:56;;;;;;;9.50;4.50;;;;;;;;;;5032473;28;20223;-60
2023/06/12 13:55:21;;;;;;;6.82;4.35;;;;;;;;;;5033728;28;20220;-59
2023/06/12 13:57:46;;;;;;;6.90;4.63;;;;;;;;;;5051571;28;20239;-60
2023/06/12 14:00:12;;;;;;;7.65;4.70;;;;;;;;;;5052021;28;20238;-59
2023/06/12 14:02:38;;;;;;;10.20;5.30;;;;;;;;;;5052268;28;20249;-60
2023/06/12 14:05:04;;;;;;;10.60;4.57;;;;;;;;;;5051254;28;20231;-60
2023/06/12 14:07:30;;;;;;;9.07;4.80;;;;;;;;;;5052060;28;20570;-60
2023/06/12 14:09:55;;;;;;;7.47;5.20;;;;;;;;;;5033031;28;20273;-60
2023/06/12 14:12:22;;;;;;;14.00;4.93;;;;;;;;;;5031225;28;20215;-60
2023/06/12 14:14:48;;;;;;;23.23;6.00;;;;;;;;;;5032328;28;20235;-59
2023/06/12 14:17:14;;;;;;;13.50;4.72;;;;;;;;;;5031101;28;20215;-60
2023/06/12 14:19:39;;;;;;;10.48;4.90;;;;;;;;;;5032062;28;20753;-60
2023/06/12 14:22:05;;;;;;;8.27;4.72;;;;;;;;;;5031711;28;20222;-60
2023/06/12 14:24:30;;;;;;;6.35;4.70;;;;;;;;;;5031023;28;20786;-60
2023/06/12 14:26:56;;;;;;;20.67;5.55;;;;;;;;;;5032074;28;20212;-59
2023/06/12 14:29:21;;;;;;;12.30;4.72;;;;;;;;;;5031778;28;20220;-59
2023/06/12 14:31:46;;;;;;;5.60;4.47;;;;;;;;;;5031193;28;20578;-61